createdAt,value
2022-08-18T00:00:33.058Z,20.70
2022-08-18T00:03:27.130Z,20.70
2022-08-18T00:05:52.241Z,20.60
2022-08-18T00:08:18.797Z,20.60
2022-08-18T00:10:45.455Z,20.50
2022-08-18T00:13:12.036Z,20.50
2022-08-18T00:15:41.424Z,20.40
2022-08-18T00:18:15.441Z,20.40
2022-08-18T00:20:42.125Z,20.30
2022-08-18T00:23:09.413Z,20.30
2022-08-18T00:25:35.982Z,20.30
2022-08-18T00:28:02.714Z,20.30
2022-08-18T00:30:29.283Z,20.30
2022-08-18T00:32:58.721Z,20.20
2022-08-18T00:35:35.095Z,20.20
2022-08-18T00:38:04.561Z,20.20
2022-08-18T00:40:51.920Z,20.20
2022-08-18T00:43:27.426Z,20.10
2022-08-18T00:45:54.010Z,20.10
2022-08-18T00:48:20.667Z,20.10
2022-08-18T00:50:57.320Z,20.00
2022-08-18T00:53:39.406Z,19.90
2022-08-18T00:56:14.561Z,19.90
2022-08-18T00:58:49.032Z,19.80
2022-08-18T01:01:19.480Z,19.80
2022-08-18T01:03:52.901Z,19.70
2022-08-18T01:06:22.383Z,19.70
2022-08-18T01:08:49.163Z,19.60
2022-08-18T01:11:15.766Z,19.60
2022-08-18T01:13:43.087Z,19.60
2022-08-18T01:16:28.177Z,19.60
2022-08-18T01:19:13.503Z,19.50
2022-08-18T01:21:51.726Z,19.50
2022-08-18T01:24:22.085Z,19.40
2022-08-18T01:26:52.077Z,19.40
2022-08-18T01:29:19.812Z,19.40
2022-08-18T01:31:56.381Z,19.40
2022-08-18T01:34:25.787Z,19.30
2022-08-18T01:36:54.888Z,19.30
2022-08-18T01:41:17.511Z,19.30
2022-08-18T01:42:09.551Z,19.20
2022-08-18T01:44:36.891Z,19.10
2022-08-18T01:47:04.148Z,19.10
2022-08-18T01:49:30.727Z,19.10
2022-08-18T01:51:57.291Z,19.10
2022-08-18T01:54:23.896Z,19.10
2022-08-18T01:56:52.497Z,19.10
2022-08-18T01:59:19.357Z,19.10
2022-08-18T02:01:48.933Z,19.10
2022-08-18T02:04:35.714Z,19.00
2022-08-18T02:07:07.471Z,19.00
2022-08-18T02:09:34.989Z,19.00
2022-08-18T02:12:01.923Z,19.00
2022-08-18T02:14:31.389Z,18.90
2022-08-18T02:17:01.705Z,18.90
2022-08-18T02:19:38.486Z,18.80
2022-08-18T02:22:06.664Z,18.80
2022-08-18T02:24:33.284Z,18.80
2022-08-18T02:27:00.065Z,18.80
2022-08-18T02:29:26.957Z,18.80
2022-08-18T02:31:53.590Z,18.80
2022-08-18T02:34:20.253Z,18.70
2022-08-18T02:36:46.870Z,18.70
2022-08-18T02:39:14.529Z,18.70
2022-08-18T02:41:41.139Z,18.60
2022-08-18T02:44:08.242Z,18.60
2022-08-18T02:46:35.320Z,18.60
2022-08-18T02:49:02.389Z,18.60
2022-08-18T02:51:29.141Z,18.60
2022-08-18T02:53:58.983Z,18.50
2022-08-18T02:56:33.656Z,18.50
2022-08-18T02:59:12.658Z,18.50
2022-08-18T03:01:42.898Z,18.40
2022-08-18T03:04:12.534Z,18.40
2022-08-18T03:06:39.543Z,18.30
2022-08-18T03:09:07.850Z,18.30
2022-08-18T03:11:35.442Z,18.30
2022-08-18T03:14:02.568Z,18.30
2022-08-18T03:16:32.972Z,18.30
2022-08-18T03:19:01.769Z,18.30
2022-08-18T03:21:30.518Z,18.30
2022-08-18T03:24:00.669Z,18.30
2022-08-18T03:26:30.248Z,18.20
2022-08-18T03:28:58.666Z,18.20
2022-08-18T03:31:27.695Z,19.60
2022-08-18T03:33:56.092Z,18.10
2022-08-18T03:36:28.941Z,18.10
2022-08-18T03:38:55.559Z,18.00
2022-08-18T03:41:57.474Z,18.10
2022-08-18T03:44:13.189Z,18.10
2022-08-18T03:46:42.360Z,18.00
2022-08-18T03:49:09.523Z,18.00
2022-08-18T03:51:36.828Z,17.90
2022-08-18T03:54:05.101Z,18.00
2022-08-18T03:56:38.270Z,18.00
2022-08-18T03:59:23.055Z,17.90
2022-08-18T04:01:51.802Z,17.90
2022-08-18T04:04:21.557Z,17.90
2022-08-18T04:06:53.898Z,17.90
2022-08-18T04:09:22.375Z,17.90
2022-08-18T04:11:49.606Z,17.80
2022-08-18T04:14:19.619Z,17.80
2022-08-18T04:16:47.762Z,17.80
2022-08-18T04:19:26.931Z,17.80
2022-08-18T04:21:56.861Z,17.80
2022-08-18T04:24:25.937Z,17.80
2022-08-18T04:26:53.290Z,17.80
2022-08-18T04:29:21.303Z,17.70
2022-08-18T04:31:50.088Z,17.70
2022-08-18T04:34:17.722Z,17.70
2022-08-18T04:36:44.503Z,17.70
2022-08-18T04:39:13.325Z,17.70
2022-08-18T04:41:43.445Z,17.70
2022-08-18T04:44:11.978Z,17.70
2022-08-18T04:46:42.069Z,17.70
2022-08-18T04:49:10.263Z,17.70
2022-08-18T04:52:34.440Z,17.70
2022-08-18T04:54:38.625Z,17.60
2022-08-18T04:57:10.238Z,17.60
2022-08-18T04:59:38.174Z,17.60
2022-08-18T05:02:11.504Z,17.70
2022-08-18T05:04:47.092Z,17.70
2022-08-18T05:07:16.318Z,17.70
2022-08-18T05:09:43.315Z,17.70
2022-08-18T05:12:15.545Z,17.70
2022-08-18T05:14:47.030Z,17.80
2022-08-18T05:17:15.925Z,17.80
2022-08-18T05:19:44.647Z,17.80
2022-08-18T05:22:17.708Z,17.80
2022-08-18T05:24:45.544Z,17.80
2022-08-18T05:27:13.004Z,17.90
2022-08-18T05:29:41.538Z,17.90
2022-08-18T05:32:30.566Z,17.90
2022-08-18T05:35:07.001Z,18.00
2022-08-18T05:37:50.129Z,18.00
2022-08-18T05:40:17.091Z,18.00
2022-08-18T05:42:43.989Z,18.10
2022-08-18T05:45:16.707Z,18.10
2022-08-18T05:47:44.632Z,18.20
2022-08-18T05:50:17.090Z,18.20
2022-08-18T05:52:51.678Z,18.20
2022-08-18T05:55:53.881Z,18.40
2022-08-18T05:58:33.520Z,18.40
2022-08-18T06:01:10.573Z,18.50
2022-08-18T06:03:56.602Z,18.50
2022-08-18T06:06:29.713Z,18.60
2022-08-18T06:09:11.787Z,18.60
2022-08-18T06:11:38.693Z,18.60
2022-08-18T06:14:05.810Z,18.70
2022-08-18T06:16:32.932Z,16.90
2022-08-18T06:19:03.284Z,18.70
2022-08-18T06:21:47.775Z,18.70
2022-08-18T06:24:35.378Z,18.70
2022-08-18T06:27:17.659Z,18.80
2022-08-18T06:30:07.508Z,18.80
2022-08-18T06:32:43.864Z,18.80
2022-08-18T06:35:19.895Z,18.80
2022-08-18T06:38:25.139Z,18.80
2022-08-18T06:41:02.474Z,18.80
2022-08-18T06:43:32.386Z,18.90
2022-08-18T06:45:59.037Z,18.90
2022-08-18T06:48:41.074Z,18.90
2022-08-18T06:51:09.776Z,19.00
2022-08-18T06:53:57.184Z,19.00
2022-08-18T06:56:46.898Z,19.10
2022-08-18T06:59:32.960Z,19.00
2022-08-18T07:02:02.328Z,19.10
2022-08-18T07:04:44.369Z,19.20
2022-08-18T07:07:50.804Z,19.20
2022-08-18T07:10:17.403Z,19.20
2022-08-18T07:12:44.033Z,19.20
2022-08-18T07:15:13.462Z,19.20
2022-08-18T07:17:43.263Z,19.10
2022-08-18T07:20:21.351Z,19.10
2022-08-18T07:23:08.262Z,19.20
2022-08-18T07:25:42.979Z,19.10
2022-08-18T07:28:38.330Z,19.20
2022-08-18T07:31:35.066Z,19.20
2022-08-18T07:34:08.058Z,19.30
2022-08-18T07:36:49.337Z,19.40
2022-08-18T07:39:25.841Z,19.40
2022-08-18T07:42:31.969Z,19.50
2022-08-18T07:45:17.873Z,19.60
2022-08-18T07:47:56.549Z,19.80
2022-08-18T07:50:57.642Z,19.90
2022-08-18T07:53:30.903Z,20.00
2022-08-18T07:56:04.922Z,20.10
2022-08-18T07:58:41.716Z,20.20
2022-08-18T08:01:27.658Z,20.30
2022-08-18T08:04:25.723Z,20.40
2022-08-18T08:07:23.802Z,20.40
2022-08-18T08:10:26.626Z,20.50
2022-08-18T08:13:22.294Z,20.60
2022-08-18T08:16:23.054Z,20.60
2022-08-18T08:18:58.520Z,20.70
2022-08-18T08:21:32.047Z,20.70
2022-08-18T08:24:25.994Z,20.70
2022-08-18T08:27:11.915Z,20.80
2022-08-18T08:29:57.330Z,20.80
2022-08-18T08:32:38.171Z,20.90
2022-08-18T08:35:16.031Z,21.00
2022-08-18T08:38:42.367Z,21.10
2022-08-18T08:41:19.873Z,21.10
2022-08-18T08:43:53.967Z,21.20
2022-08-18T08:46:29.922Z,21.10
2022-08-18T08:49:07.456Z,21.10
2022-08-18T08:51:39.545Z,21.20
2022-08-18T08:54:14.011Z,21.30
2022-08-18T08:56:47.904Z,21.30
2022-08-18T08:59:17.258Z,21.40
2022-08-18T09:02:05.815Z,21.50
2022-08-18T09:04:54.757Z,21.50
2022-08-18T09:07:51.039Z,21.50
2022-08-18T09:10:59.566Z,21.50
2022-08-18T09:13:29.427Z,21.50
2022-08-18T09:16:17.545Z,21.40
2022-08-18T09:19:21.247Z,21.50
2022-08-18T09:22:18.819Z,21.50
2022-08-18T09:24:55.827Z,21.60
2022-08-18T09:28:08.839Z,21.60
2022-08-18T09:31:14.142Z,21.60
2022-08-18T09:34:11.009Z,21.50
2022-08-18T09:37:02.983Z,21.40
2022-08-18T09:39:56.867Z,21.40
2022-08-18T09:42:29.869Z,21.50
2022-08-18T09:45:00.779Z,21.50
2022-08-18T09:47:30.420Z,21.60
2022-08-18T09:50:38.196Z,21.60
2022-08-18T09:53:32.035Z,21.70
2022-08-18T09:56:01.650Z,21.70
2022-08-18T09:58:52.928Z,21.70
2022-08-18T10:01:36.687Z,21.80
2022-08-18T10:04:15.444Z,21.70
2022-08-18T10:06:48.925Z,21.60
2022-08-18T10:09:36.552Z,21.60
2022-08-18T10:15:33.184Z,21.60
2022-08-18T10:18:28.094Z,21.70
2022-08-18T10:24:36.981Z,21.60
2022-08-18T10:27:13.353Z,21.60
2022-08-18T10:29:50.882Z,21.50
2022-08-18T10:32:23.821Z,21.50
2022-08-18T10:34:53.013Z,21.50
2022-08-18T10:37:49.029Z,21.50
2022-08-18T10:40:21.347Z,21.60
2022-08-18T10:42:59.993Z,21.80
2022-08-18T10:45:31.380Z,21.90
2022-08-18T10:48:11.969Z,22.00
2022-08-18T10:51:21.516Z,22.20
2022-08-18T10:54:11.313Z,22.30
2022-08-18T10:56:55.617Z,22.40
2022-08-18T10:59:54.540Z,22.50
2022-08-18T11:02:49.564Z,22.50
2022-08-18T11:05:21.992Z,22.60
2022-08-18T11:07:56.507Z,22.70
2022-08-18T11:10:57.712Z,22.70
2022-08-18T11:14:20.712Z,22.80
2022-08-18T11:17:26.369Z,22.90
2022-08-18T11:19:54.173Z,22.90
2022-08-18T11:22:31.459Z,22.90
2022-08-18T11:25:01.114Z,23.00
2022-08-18T11:27:35.376Z,23.00
2022-08-18T11:30:04.991Z,23.00
2022-08-18T11:32:34.937Z,23.10
2022-08-18T11:35:10.705Z,23.10
2022-08-18T11:37:53.833Z,23.20
2022-08-18T11:41:02.284Z,23.30
2022-08-18T11:43:16.037Z,23.30
2022-08-18T11:45:53.938Z,23.40
2022-08-18T11:48:36.067Z,23.40
2022-08-18T11:51:25.378Z,23.30
2022-08-18T11:54:02.274Z,23.20
2022-08-18T11:56:35.867Z,23.10
2022-08-18T11:59:53.605Z,23.10
2022-08-18T12:02:20.816Z,23.20
2022-08-18T12:04:57.486Z,23.30
2022-08-18T12:07:35.774Z,23.30
2022-08-18T12:10:18.049Z,23.30
2022-08-18T12:12:51.819Z,23.20
2022-08-18T12:15:24.776Z,23.20
2022-08-18T12:17:53.621Z,23.30
2022-08-18T12:20:21.472Z,23.30
2022-08-18T12:22:49.568Z,23.30
2022-08-18T12:28:05.565Z,23.40
2022-08-18T12:30:37.785Z,23.40
2022-08-18T12:33:12.324Z,23.30
2022-08-18T12:38:26.578Z,23.50
2022-08-18T12:40:53.378Z,23.60
2022-08-18T12:43:20.368Z,23.70
2022-08-18T12:45:47.384Z,23.80
2022-08-18T12:48:14.087Z,23.90
2022-08-18T12:50:54.539Z,24.00
2022-08-18T12:56:33.202Z,24.10
2022-08-18T12:59:05.143Z,24.10
2022-08-18T13:01:33.491Z,24.10
2022-08-18T13:04:11.530Z,24.10
2022-08-18T13:06:46.955Z,24.10
2022-08-18T13:09:48.066Z,24.20
2022-08-18T13:12:18.394Z,24.20
2022-08-18T13:14:46.697Z,26.40
2022-08-18T13:17:32.379Z,24.30
2022-08-18T13:20:06.324Z,24.20
2022-08-18T13:22:34.435Z,24.40
2022-08-18T13:25:03.988Z,24.50
2022-08-18T13:27:32.937Z,24.50
2022-08-18T13:30:02.992Z,24.60
2022-08-18T13:32:58.605Z,24.70
2022-08-18T13:35:29.904Z,24.80
2022-08-18T13:38:12.355Z,24.90
2022-08-18T13:40:48.193Z,25.00
2022-08-18T13:43:17.365Z,25.10
2022-08-18T13:45:48.148Z,25.10
2022-08-18T13:48:19.803Z,25.20
2022-08-18T13:50:46.998Z,25.10
2022-08-18T13:53:20.451Z,25.10
2022-08-18T13:55:48.322Z,25.10
2022-08-18T13:58:20.978Z,25.20
2022-08-18T14:00:52.188Z,25.20
2022-08-18T14:03:42.863Z,25.20
2022-08-18T14:06:07.512Z,25.20
2022-08-18T14:08:34.783Z,27.30
2022-08-18T14:11:03.246Z,25.30
2022-08-18T14:13:30.445Z,25.30
2022-08-18T14:16:10.597Z,25.40
2022-08-18T14:18:37.191Z,25.40
2022-08-18T14:21:24.502Z,25.30
2022-08-18T14:24:10.182Z,25.40
2022-08-18T14:26:50.498Z,25.40
2022-08-18T14:29:46.391Z,25.50
2022-08-18T14:32:06.305Z,25.60
2022-08-18T14:34:32.932Z,25.60
2022-08-18T14:36:59.588Z,25.70
2022-08-18T14:39:26.206Z,25.70
2022-08-18T14:41:55.749Z,25.70
2022-08-18T14:44:24.780Z,25.60
2022-08-18T14:46:57.493Z,25.60
2022-08-18T14:49:28.294Z,25.60
2022-08-18T14:51:57.772Z,25.60
2022-08-18T14:54:28.365Z,25.60
2022-08-18T14:56:55.579Z,25.60
2022-08-18T14:59:23.573Z,25.50
2022-08-18T15:01:51.310Z,25.50
2022-08-18T15:04:19.551Z,25.60
2022-08-18T15:06:56.316Z,25.50
2022-08-18T15:09:27.326Z,25.50
2022-08-18T15:11:56.285Z,25.50
2022-08-18T15:14:26.649Z,25.50
2022-08-18T15:17:00.826Z,25.40
2022-08-18T15:19:59.689Z,25.40
2022-08-18T15:22:33.018Z,25.30
2022-08-18T15:25:18.268Z,25.30
2022-08-18T15:27:48.042Z,25.30
2022-08-18T15:30:20.217Z,25.30
2022-08-18T15:32:49.906Z,25.40
2022-08-18T15:35:17.681Z,25.30
2022-08-18T15:37:47.525Z,25.30
2022-08-18T15:40:30.105Z,25.40
2022-08-18T15:43:06.903Z,25.30
2022-08-18T15:45:43.489Z,25.20
2022-08-18T15:48:26.812Z,25.20
2022-08-18T15:50:54.389Z,25.20
2022-08-18T15:53:29.847Z,25.20
2022-08-18T15:55:57.552Z,25.30
2022-08-18T15:58:26.871Z,25.30
2022-08-18T16:00:55.306Z,25.30
2022-08-18T16:03:22.007Z,25.30
2022-08-18T16:05:53.216Z,25.20
2022-08-18T16:08:22.401Z,25.20
2022-08-18T16:10:49.003Z,25.20
2022-08-18T16:13:15.808Z,25.30
2022-08-18T16:15:46.699Z,25.20
2022-08-18T16:18:14.560Z,25.20
2022-08-18T16:20:42.737Z,25.20
2022-08-18T16:23:10.655Z,25.20
2022-08-18T16:25:39.006Z,25.20
2022-08-18T16:28:05.929Z,23.70
2022-08-18T16:30:33.544Z,25.20
2022-08-18T16:33:03.030Z,25.20
2022-08-18T16:35:31.149Z,25.20
2022-08-18T16:38:06.400Z,25.30
2022-08-18T16:40:33.114Z,25.30
2022-08-18T16:43:00.744Z,23.50
2022-08-18T16:45:28.394Z,25.30
2022-08-18T16:47:55.748Z,25.30
2022-08-18T16:50:23.500Z,25.30
2022-08-18T16:52:50.485Z,25.30
2022-08-18T16:55:17.368Z,25.30
2022-08-18T16:58:04.384Z,25.20
2022-08-18T17:00:55.202Z,25.20
2022-08-18T17:03:41.933Z,25.20
2022-08-18T17:06:13.845Z,25.10
2022-08-18T17:08:41.788Z,25.10
2022-08-18T17:11:12.561Z,23.80
2022-08-18T17:13:40.282Z,25.10
2022-08-18T17:16:08.608Z,25.10
2022-08-18T17:18:36.059Z,25.00
2022-08-18T17:21:04.416Z,25.00
2022-08-18T17:23:32.221Z,25.10
2022-08-18T17:26:02.548Z,25.00
2022-08-18T17:28:53.795Z,25.00
2022-08-18T17:31:24.361Z,25.00
2022-08-18T17:33:54.729Z,25.00
2022-08-18T17:36:33.425Z,24.90
2022-08-18T17:39:02.699Z,24.80
2022-08-18T17:41:29.476Z,24.80
2022-08-18T17:44:00.777Z,24.80
2022-08-18T17:46:33.030Z,24.80
2022-08-18T17:49:24.785Z,24.80
2022-08-18T17:51:55.912Z,24.80
2022-08-18T17:54:43.453Z,24.70
2022-08-18T17:57:23.873Z,24.70
2022-08-18T18:00:11.920Z,24.70
2022-08-18T18:02:45.048Z,24.70
2022-08-18T18:05:15.984Z,24.70
2022-08-18T18:07:50.274Z,24.70
2022-08-18T18:11:02.426Z,24.70
2022-08-18T18:13:32.332Z,24.70
2022-08-18T18:16:02.018Z,24.60
2022-08-18T18:18:41.853Z,24.60
2022-08-18T18:21:08.830Z,24.60
2022-08-18T18:23:41.212Z,24.50
2022-08-18T18:26:28.700Z,24.50
2022-08-18T18:29:21.526Z,24.50
2022-08-18T18:32:02.496Z,24.40
2022-08-18T18:34:40.923Z,24.40
2022-08-18T18:37:33.000Z,24.30
2022-08-18T18:40:05.726Z,24.30
2022-08-18T18:42:35.102Z,24.20
2022-08-18T18:45:09.384Z,24.20
2022-08-18T18:47:45.435Z,24.20
2022-08-18T18:50:21.237Z,24.10
2022-08-18T18:53:20.281Z,24.00
2022-08-18T18:56:07.254Z,24.00
2022-08-18T18:58:48.147Z,23.90
2022-08-18T19:01:32.977Z,23.90
2022-08-18T19:04:13.877Z,23.80
2022-08-18T19:07:10.795Z,23.80
2022-08-18T19:09:56.909Z,23.80
2022-08-18T19:12:29.609Z,22.50
2022-08-18T19:15:04.868Z,23.70
2022-08-18T19:17:49.097Z,23.70
2022-08-18T19:20:23.227Z,23.60
2022-08-18T19:22:54.403Z,23.60
2022-08-18T19:25:30.778Z,23.50
2022-08-18T19:28:20.552Z,23.50
2022-08-18T19:30:50.546Z,23.40
2022-08-18T19:33:45.437Z,23.40
2022-08-18T19:36:37.853Z,23.30
2022-08-18T19:39:23.863Z,23.30
2022-08-18T19:42:15.725Z,23.20
2022-08-18T19:45:15.424Z,23.10
2022-08-18T19:47:53.109Z,23.10
2022-08-18T19:50:31.042Z,23.00
2022-08-18T19:53:04.857Z,23.00
2022-08-18T19:55:38.380Z,23.00
2022-08-18T19:58:23.345Z,22.90
2022-08-18T20:01:01.783Z,22.90
2022-08-18T20:03:52.058Z,22.90
2022-08-18T20:06:34.662Z,22.80
2022-08-18T20:09:30.138Z,22.80
2022-08-18T20:12:34.986Z,22.80
2022-08-18T20:15:13.786Z,22.80
2022-08-18T20:17:57.776Z,22.70
2022-08-18T20:20:37.998Z,22.80
2022-08-18T20:23:32.394Z,22.70
2022-08-18T20:25:59.325Z,22.70
2022-08-18T20:28:38.944Z,22.70
2022-08-18T20:31:15.594Z,22.60
2022-08-18T20:34:03.930Z,22.60
2022-08-18T20:36:36.560Z,22.60
2022-08-18T20:39:32.185Z,22.60
2022-08-18T20:41:59.841Z,22.50
2022-08-18T20:44:34.381Z,22.60
2022-08-18T20:47:18.473Z,22.50
2022-08-18T20:50:12.972Z,22.50
2022-08-18T20:52:48.737Z,22.50
2022-08-18T20:55:30.767Z,22.50
2022-08-18T20:58:05.219Z,22.40
2022-08-18T21:00:36.796Z,22.40
2022-08-18T21:03:10.753Z,22.40
2022-08-18T21:05:40.073Z,22.30
2022-08-18T21:08:16.434Z,22.30
2022-08-18T21:10:56.070Z,22.10
2022-08-18T21:13:39.826Z,22.20
2022-08-18T21:16:12.066Z,22.20
2022-08-18T21:18:40.203Z,22.10
2022-08-18T21:21:16.128Z,22.10
2022-08-18T21:23:56.636Z,22.10
2022-08-18T21:26:23.741Z,22.10
2022-08-18T21:28:54.813Z,22.00
2022-08-18T21:31:44.145Z,22.00
2022-08-18T21:34:33.176Z,22.00
2022-08-18T21:37:06.358Z,21.90
2022-08-18T21:39:33.382Z,22.00
2022-08-18T21:42:01.426Z,21.90
2022-08-18T21:44:44.399Z,21.90
2022-08-18T21:47:32.299Z,21.90
2022-08-18T21:50:09.508Z,21.90
2022-08-18T21:52:39.698Z,21.90
2022-08-18T21:55:17.353Z,21.90
2022-08-18T21:58:00.812Z,21.80
2022-08-18T22:00:32.055Z,21.80
2022-08-18T22:03:20.394Z,21.70
2022-08-18T22:06:13.738Z,21.70
2022-08-18T22:09:25.314Z,21.70
2022-08-18T22:12:36.363Z,21.60
2022-08-18T22:15:16.676Z,21.60
2022-08-18T22:17:53.787Z,21.60
2022-08-18T22:20:43.643Z,21.50
2022-08-18T22:23:31.813Z,21.60
2022-08-18T22:26:29.523Z,21.50
2022-08-18T22:29:01.330Z,21.50
2022-08-18T22:31:31.581Z,21.40
2022-08-18T22:34:02.391Z,21.40
2022-08-18T22:36:34.697Z,21.30
2022-08-18T22:39:01.586Z,21.30
2022-08-18T22:41:29.859Z,21.30
2022-08-18T22:43:58.234Z,21.30
2022-08-18T22:46:25.204Z,21.20
2022-08-18T22:48:53.042Z,21.20
2022-08-18T22:51:23.253Z,21.20
2022-08-18T22:53:50.490Z,21.20
2022-08-18T22:56:22.680Z,21.20
2022-08-18T22:59:00.856Z,21.20
2022-08-18T23:01:39.397Z,21.20
2022-08-18T23:04:06.584Z,21.10
2022-08-18T23:06:33.619Z,21.10
2022-08-18T23:09:03.015Z,21.10
2022-08-18T23:11:31.209Z,21.10
2022-08-18T23:14:00.923Z,21.00
2022-08-18T23:16:31.475Z,21.00
2022-08-18T23:19:03.048Z,21.00
2022-08-18T23:21:34.885Z,21.00
2022-08-18T23:24:05.994Z,21.00
2022-08-18T23:26:33.894Z,21.00
2022-08-18T23:29:00.569Z,20.90
2022-08-18T23:31:27.683Z,20.90
2022-08-18T23:33:54.282Z,20.80
2022-08-18T23:36:20.925Z,20.80
2022-08-18T23:38:47.538Z,20.80
2022-08-18T23:41:16.211Z,20.80
2022-08-18T23:43:42.869Z,20.80
2022-08-18T23:46:25.567Z,20.70
2022-08-18T23:48:53.061Z,20.70
2022-08-18T23:51:39.386Z,20.70
2022-08-18T23:54:09.642Z,20.70
2022-08-18T23:56:37.706Z,20.70
2022-08-18T23:59:06.668Z,20.60
